Time;durP1;ratioP1;P1;durP2;ratioP2;P2;SDS_P1;SDS_P2;PMS_P1;PMS_P2;Temp;Humidity;BMP_temperature;BMP_pressure;BME280_temperature;BME280_humidity;BME280_pressure;Samples;Min_cycle;Max_cycle;Signal;HPM_P1;HPM_P2
2023/12/26 00:00:49;;;;;;;4.97;2.20;;;;;;;8.28;100.00;100013.06;5034118;28;20051;-72
2023/12/26 00:03:15;;;;;;;;;;;;;;;8.32;100.00;99996.22;5054047;28;20035;-73
2023/12/26 00:05:41;;;;;;;4.30;2.53;;;;;;;8.30;100.00;100001.03;5010056;28;19962;-74
2023/12/26 00:08:08;;;;;;;4.75;1.88;;;;;;;8.26;100.00;99991.16;5049131;28;20056;-72
2023/12/26 00:10:34;;;;;;;3.40;2.10;;;;;;;8.23;100.00;99981.84;5035245;28;20039;-73
2023/12/26 00:13:01;;;;;;;9.85;1.90;;;;;;;8.24;100.00;99977.31;5039691;28;20102;-72
2023/12/26 00:15:27;;;;;;;5.82;2.22;;;;;;;8.21;100.00;99973.31;5055107;28;20121;-74
2023/12/26 00:17:53;;;;;;;6.50;1.92;;;;;;;8.19;100.00;99970.13;5069211;28;20024;-71
2023/12/26 00:20:19;;;;;;;5.28;1.67;;;;;;;8.16;100.00;99968.81;5032079;28;20045;-73
2023/12/26 00:22:45;;;;;;;;;;;;;;;8.16;100.00;99965.34;5057219;28;20153;-72
2023/12/26 00:25:12;;;;;;;3.78;1.40;;;;;;;8.16;100.00;99963.47;5041572;28;19920;-73
2023/12/26 00:27:39;;;;;;;1.58;1.20;;;;;;;8.12;100.00;99965.06;5020878;28;20041;-72
2023/12/26 00:30:08;;;;;;;3.60;0.95;;;;;;;8.09;100.00;99970.97;5009273;28;20059;-72
2023/12/26 00:32:34;;;;;;;5.25;1.33;;;;;;;8.08;100.00;99964.03;5027168;28;20031;-72
2023/12/26 00:35:00;;;;;;;5.05;1.40;;;;;;;8.05;100.00;99958.44;5047982;28;20595;-73
2023/12/26 00:37:26;;;;;;;;;;;;;;;8.05;100.00;99955.75;5030084;28;20044;-74
2023/12/26 00:39:53;;;;;;;4.45;1.52;;;;;;;8.01;100.00;99958.19;5043492;28;19963;-73
2023/12/26 00:42:19;;;;;;;4.03;1.13;;;;;;;8.02;100.00;99959.00;5027268;28;20059;-72
2023/12/26 00:44:45;;;;;;;4.18;1.45;;;;;;;8.00;100.00;99961.13;5035099;28;20094;-72
2023/12/26 00:47:11;;;;;;;4.97;0.90;;;;;;;7.96;100.00;99957.41;5023678;28;20057;-72
2023/12/26 00:49:37;;;;;;;4.85;1.23;;;;;;;7.96;100.00;99965.41;5051779;28;20048;-71
2023/12/26 00:52:03;;;;;;;3.05;0.88;;;;;;;7.96;100.00;99962.72;5049138;28;20038;-72
2023/12/26 00:54:29;;;;;;;10.13;1.00;;;;;;;7.97;100.00;99964.31;5032759;28;20033;-73
2023/12/26 00:56:55;;;;;;;4.10;1.10;;;;;;;7.94;100.00;99953.13;5048074;28;20033;-73
2023/12/26 00:59:20;;;;;;;2.90;0.75;;;;;;;7.92;100.00;99949.97;5042615;28;20342;-73
2023/12/26 01:01:46;;;;;;;2.33;1.17;;;;;;;7.93;100.00;99956.88;5037931;28;20110;-73
2023/12/26 01:04:11;;;;;;;4.00;1.10;;;;;;;7.93;100.00;99948.88;5030725;28;20128;-72
2023/12/26 01:06:37;;;;;;;5.43;1.13;;;;;;;7.90;100.00;99930.75;5032993;28;20221;-74
2023/12/26 01:09:03;;;;;;;2.50;0.98;;;;;;;7.87;100.00;99935.84;5067737;28;20177;-72
2023/12/26 01:11:28;;;;;;;3.05;0.90;;;;;;;7.87;100.00;99914.50;5049479;28;20041;-72
2023/12/26 01:13:56;;;;;;;3.03;0.98;;;;;;;7.89;100.00;99923.81;5060261;28;20063;-72
2023/12/26 01:16:25;;;;;;;3.50;0.98;;;;;;;7.87;100.00;99915.31;5045863;28;20226;-72
2023/12/26 01:18:51;;;;;;;3.67;1.00;;;;;;;7.90;100.00;99925.41;5015782;28;20036;-73
2023/12/26 01:21:16;;;;;;;2.28;0.88;;;;;;;7.93;100.00;99938.22;5032495;28;20036;-73
2023/12/26 01:23:42;;;;;;;1.70;1.13;;;;;;;7.95;100.00;99935.28;5049032;28;20040;-72
2023/12/26 01:26:08;;;;;;;3.08;1.05;;;;;;;7.96;100.00;99933.41;5045067;28;20036;-72
2023/12/26 01:28:34;;;;;;;3.15;1.15;;;;;;;8.01;100.00;99941.41;5033192;28;20051;-72
2023/12/26 01:31:01;;;;;;;2.08;1.33;;;;;;;8.02;100.00;99937.66;5035621;28;20040;-73
2023/12/26 01:33:27;;;;;;;3.90;1.30;;;;;;;8.04;100.00;99927.50;5070612;28;20112;-74
2023/12/26 01:35:52;;;;;;;2.72;1.30;;;;;;;8.07;100.00;99926.97;5037010;28;21965;-73
2023/12/26 01:38:18;;;;;;;2.53;1.70;;;;;;;8.08;100.00;99925.91;5041668;28;20035;-74
2023/12/26 01:40:45;;;;;;;2.58;1.75;;;;;;;8.09;100.00;99932.81;5030151;28;20103;-73
2023/12/26 01:43:11;;;;;;;2.83;1.48;;;;;;;8.10;100.00;99913.09;5037102;28;20052;-72
2023/12/26 01:45:36;;;;;;;3.13;1.75;;;;;;;8.09;100.00;99914.16;5049039;28;20032;-74
2023/12/26 01:48:06;;;;;;;4.72;1.63;;;;;;;8.13;100.00;99905.34;5011921;28;20186;-73
2023/12/26 01:50:33;;;;;;;3.13;1.63;;;;;;;8.13;100.00;99905.34;5045182;28;20135;-74
2023/12/26 01:52:59;;;;;;;1.98;1.40;;;;;;;8.14;100.00;99911.47;5036475;28;20052;-73
2023/12/26 01:55:25;;;;;;;3.30;1.70;;;;;;;8.16;100.00;99912.78;5025668;28;20025;-72
2023/12/26 01:57:54;;;;;;;3.03;1.73;;;;;;;8.16;100.00;99898.66;5046933;28;20045;-72
2023/12/26 02:00:19;;;;;;;3.60;2.42;;;;;;;8.15;100.00;99902.41;5043446;28;20031;-72
2023/12/26 02:02:50;;;;;;;2.45;1.58;;;;;;;8.16;100.00;99904.78;5033754;28;20498;-73
2023/12/26 02:05:16;;;;;;;1.85;1.27;;;;;;;8.17;100.00;99886.91;5009046;28;20024;-72
2023/12/26 02:07:42;;;;;;;4.22;1.70;;;;;;;8.20;100.00;99884.50;5042587;28;20029;-73
2023/12/26 02:10:07;;;;;;;3.90;1.42;;;;;;;8.21;100.00;99883.44;5064530;28;20039;-73
2023/12/26 02:12:34;;;;;;;4.65;1.30;;;;;;;8.24;100.00;99892.75;5041079;28;20025;-73
2023/12/26 02:15:00;;;;;;;2.92;1.20;;;;;;;8.23;100.00;99885.81;5051695;28;20402;-73
2023/12/26 02:17:25;;;;;;;3.72;1.35;;;;;;;8.19;100.00;99890.91;5050228;28;20032;-73
2023/12/26 02:19:52;;;;;;;3.40;1.35;;;;;;;8.24;100.00;99878.63;5027496;28;20028;-72
2023/12/26 02:22:18;;;;;;;2.47;1.10;;;;;;;8.21;100.00;99877.31;5015036;28;20561;-73
2023/12/26 02:24:47;;;;;;;2.63;1.10;;;;;;;8.22;100.00;99876.22;5065173;28;20079;-72
2023/12/26 02:27:29;;;;;;;1.45;0.98;;;;;;;8.24;100.00;99873.28;5016986;28;20040;-73
2023/12/26 02:29:57;;;;;;;3.40;1.30;;;;;;;8.21;100.00;99871.97;5039389;28;20574;-74
2023/12/26 02:32:25;;;;;;;1.83;0.90;;;;;;;8.22;100.00;99865.56;5031406;28;20494;-73
2023/12/26 02:34:55;;;;;;;1.75;1.30;;;;;;;8.22;100.00;99876.22;5063048;28;20028;-74
2023/12/26 02:37:25;;;;;;;4.68;0.80;;;;;;;8.21;100.00;99871.97;5047404;28;20136;-74
2023/12/26 02:39:51;;;;;;;2.50;1.10;;;;;;;8.19;100.00;99864.22;5015770;28;20262;-74
2023/12/26 02:42:18;;;;;;;3.13;0.90;;;;;;;8.24;100.00;99875.94;5065812;28;20036;-72
2023/12/26 02:44:44;;;;;;;3.90;1.10;;;;;;;8.23;100.00;99875.16;5025664;28;20478;-72
2023/12/26 02:47:10;;;;;;;;;;;;;;;8.20;100.00;99865.03;5046869;28;20082;-72
2023/12/26 02:49:35;;;;;;;4.50;0.90;;;;;;;8.21;100.00;99866.63;5027813;28;19916;-72
2023/12/26 02:52:02;;;;;;;3.22;0.90;;;;;;;8.20;100.00;99859.72;5044752;28;20038;-72
2023/12/26 02:54:27;;;;;;;3.67;0.73;;;;;;;8.20;100.00;99860.50;5029109;28;20112;-72
2023/12/26 02:56:53;;;;;;;2.65;0.95;;;;;;;8.20;100.00;99859.72;5046467;28;20116;-72
2023/12/26 02:59:19;;;;;;;1.42;0.65;;;;;;;8.21;100.00;99871.97;5051166;28;20028;-70
2023/12/26 03:01:45;;;;;;;2.85;0.93;;;;;;;8.20;100.00;99883.72;5031326;28;20044;-72
2023/12/26 03:04:12;;;;;;;2.53;1.08;;;;;;;8.20;100.00;99876.50;5028263;28;20093;-73
2023/12/26 03:06:38;;;;;;;1.92;0.77;;;;;;;8.20;100.00;99875.72;5058257;28;20310;-73
2023/12/26 03:09:04;;;;;;;1.42;0.80;;;;;;;8.19;100.00;99884.75;5030686;28;20135;-73
2023/12/26 03:11:30;;;;;;;1.65;0.60;;;;;;;8.19;100.00;99884.75;5061290;28;20120;-72
2023/12/26 03:13:55;;;;;;;2.35;0.82;;;;;;;8.18;100.00;99883.16;5031239;28;20044;-72
2023/12/26 03:16:21;;;;;;;2.38;0.75;;;;;;;8.17;100.00;99869.03;5059218;28;21008;-71
2023/12/26 03:18:47;;;;;;;2.45;1.15;;;;;;;8.21;100.00;99882.63;5044105;28;20037;-73
2023/12/26 03:21:14;;;;;;;1.80;0.75;;;;;;;8.22;100.00;99884.22;5032395;28;20028;-74
2023/12/26 03:23:41;;;;;;;2.88;0.82;;;;;;;8.21;100.00;99887.97;5030422;28;20047;-74
2023/12/26 03:26:08;;;;;;;2.45;0.60;;;;;;;8.23;100.00;99879.69;5027742;28;20367;-74
2023/12/26 03:28:34;;;;;;;1.33;0.55;;;;;;;8.21;100.00;99877.31;5064305;28;20055;-74
2023/12/26 03:31:03;;;;;;;;;;;;;;;8.21;100.00;99878.09;5031102;28;20041;-74
2023/12/26 03:33:28;;;;;;;1.77;0.63;;;;;;;8.23;100.00;99879.69;5049633;28;20288;-72
2023/12/26 03:35:54;;;;;;;1.30;0.60;;;;;;;8.21;100.00;99885.31;5027536;28;20478;-72
2023/12/26 03:38:20;;;;;;;1.88;0.60;;;;;;;8.23;100.00;99891.16;5051231;28;20032;-73
2023/12/26 03:40:45;;;;;;;1.95;0.85;;;;;;;8.26;100.00;99882.59;5066565;28;20073;-72
2023/12/26 03:43:11;;;;;;;1.20;0.50;;;;;;;8.28;100.00;99893.81;5060521;28;20085;-71
2023/12/26 03:45:37;;;;;;;2.03;0.60;;;;;;;8.27;100.00;99889.53;5042824;28;20136;-72
2023/12/26 03:48:05;;;;;;;1.23;0.40;;;;;;;8.28;100.00;99891.13;5044165;28;20493;-71
2023/12/26 03:50:31;;;;;;;3.30;0.65;;;;;;;8.29;100.00;99889.25;5013046;28;20041;-72
2023/12/26 03:52:56;;;;;;;1.05;0.75;;;;;;;8.26;100.00;99885.25;5048430;28;20036;-71
2023/12/26 03:55:22;;;;;;;2.40;0.40;;;;;;;8.21;100.00;99887.97;5024823;28;20044;-72
2023/12/26 03:57:48;;;;;;;1.90;0.77;;;;;;;8.23;100.00;99907.16;5027266;28;20097;-72
2023/12/26 04:00:15;;;;;;;2.38;0.55;;;;;;;8.23;100.00;99915.16;5045379;28;20056;-72
2023/12/26 04:02:43;;;;;;;0.85;0.50;;;;;;;8.24;100.00;99927.41;5035706;28;20355;-72
2023/12/26 04:05:12;;;;;;;1.30;0.50;;;;;;;8.23;100.00;99920.50;5015674;28;20044;-73
2023/12/26 04:07:38;;;;;;;1.75;0.25;;;;;;;8.22;100.00;99926.91;5033920;28;20032;-74
2023/12/26 04:10:04;;;;;;;;;;;;;;;8.25;100.00;99930.88;5066279;28;20610;-73
2023/12/26 04:12:32;;;;;;;1.65;0.50;;;;;;;8.24;100.00;99934.63;5047158;28;19917;-72
2023/12/26 04:14:58;;;;;;;1.38;0.50;;;;;;;8.25;100.00;99942.34;5053256;28;20032;-73
2023/12/26 04:17:24;;;;;;;0.80;0.22;;;;;;;8.24;100.00;99934.63;5048184;28;20091;-71
2023/12/26 04:19:50;;;;;;;2.38;0.68;;;;;;;8.21;100.00;99926.13;5065161;28;20797;-72
2023/12/26 04:22:15;;;;;;;1.63;0.50;;;;;;;8.21;100.00;99925.31;5045691;28;20036;-73
2023/12/26 04:24:41;;;;;;;2.55;0.50;;;;;;;8.22;100.00;99929.56;5037070;28;20039;-72
2023/12/26 04:27:07;;;;;;;1.88;0.60;;;;;;;8.22;100.00;99937.56;5066363;28;20043;-72
2023/12/26 04:29:33;;;;;;;1.00;0.50;;;;;;;8.21;100.00;99933.31;5047363;28;20036;-73
2023/12/26 04:32:00;;;;;;;1.50;0.70;;;;;;;8.24;100.00;99938.09;5030250;28;20044;-73
2023/12/26 04:34:25;;;;;;;3.15;0.70;;;;;;;8.26;100.00;99943.16;5029197;28;20131;-71
2023/12/26 04:36:51;;;;;;;3.53;0.80;;;;;;;8.25;100.00;99953.03;5031612;28;20032;-72
2023/12/26 04:39:18;;;;;;;2.88;0.63;;;;;;;8.25;100.00;99949.56;5045906;28;20029;-72
2023/12/26 04:41:47;;;;;;;1.85;0.60;;;;;;;8.27;100.00;99948.22;5030975;28;20037;-73
2023/12/26 04:44:13;;;;;;;2.78;1.00;;;;;;;8.26;100.00;99956.50;5048793;28;20557;-72
2023/12/26 04:46:38;;;;;;;2.88;0.60;;;;;;;8.20;100.00;99971.72;5030192;28;20028;-72
2023/12/26 04:49:04;;;;;;;4.70;1.10;;;;;;;8.19;100.00;99962.09;5060599;28;20052;-74
2023/12/26 04:51:30;;;;;;;3.20;0.75;;;;;;;8.23;100.00;99967.72;5025861;28;20561;-72
2023/12/26 04:53:56;;;;;;;;;;;;;;;8.19;100.00;99976.25;5027937;28;20551;-72
2023/12/26 04:56:22;;;;;;;3.95;0.75;;;;;;;8.11;100.00;99971.47;5020951;28;19923;-72
2023/12/26 04:58:50;;;;;;;6.85;1.17;;;;;;;8.11;100.00;99979.47;5025594;28;20125;-73
2023/12/26 05:01:17;;;;;;;5.85;1.05;;;;;;;8.10;100.00;99991.22;4996734;28;20860;-72
2023/12/26 05:03:45;;;;;;;6.28;1.02;;;;;;;8.08;100.00;99984.56;5049043;28;20056;-72
2023/12/26 05:06:11;;;;;;;5.28;0.82;;;;;;;8.02;100.00;100002.44;5028086;28;20052;-72
2023/12/26 05:08:38;;;;;;;5.90;1.02;;;;;;;8.01;100.00;99989.38;5049042;28;20038;-71
2023/12/26 05:11:04;;;;;;;;;;;;;;;7.92;100.00;100003.28;5019254;28;20123;-72
2023/12/26 05:13:30;;;;;;;6.38;1.30;;;;;;;7.88;100.00;99999.53;5064647;28;19919;-73
2023/12/26 05:15:55;;;;;;;9.30;1.10;;;;;;;7.84;100.00;100014.47;5016910;28;20037;-74
2023/12/26 05:18:21;;;;;;;8.23;1.13;;;;;;;7.84;100.00;100019.00;5046635;28;20037;-75
2023/12/26 05:20:47;;;;;;;11.40;1.35;;;;;;;7.78;100.00;100018.19;5036539;28;20031;-75
2023/12/26 05:23:13;;;;;;;9.20;1.35;;;;;;;7.72;100.00;100016.59;5044002;28;20037;-73
2023/12/26 05:25:39;;;;;;;8.93;1.40;;;;;;;7.75;100.00;100016.09;5052732;28;20028;-73
2023/12/26 05:28:05;;;;;;;;;;;;;;;7.74;100.00;100025.16;5065825;28;20723;-73
2023/12/26 05:30:30;;;;;;;8.10;1.15;;;;;;;7.72;100.00;100021.13;5066071;22;20388;-71
2023/12/26 05:32:56;;;;;;;8.10;1.83;;;;;;;7.73;100.00;100020.91;5062501;28;20397;-71
2023/12/26 05:35:23;;;;;;;6.55;1.27;;;;;;;7.72;100.00;100029.13;5081433;28;20573;-71
2023/12/26 05:37:48;;;;;;;7.07;1.25;;;;;;;7.68;100.00;100036.88;5060729;28;20079;-74
2023/12/26 05:40:14;;;;;;;8.85;1.52;;;;;;;7.65;100.00;100034.72;5061299;28;20039;-73
2023/12/26 05:42:40;;;;;;;9.02;1.23;;;;;;;7.64;100.00;100038.47;5067234;28;20066;-70
2023/12/26 05:45:06;;;;;;;8.60;1.30;;;;;;;7.64;100.00;100054.47;5083454;28;20035;-72
2023/12/26 05:47:32;;;;;;;5.80;1.05;;;;;;;7.62;100.00;100062.72;5067936;28;20067;-72
2023/12/26 05:49:58;;;;;;;6.90;1.73;;;;;;;7.65;100.00;100070.22;5062168;28;20137;-71
2023/12/26 05:52:26;;;;;;;8.45;1.80;;;;;;;7.65;100.00;100072.03;5065586;28;20107;-72
2023/12/26 05:54:52;;;;;;;5.63;1.27;;;;;;;7.71;100.00;100070.97;5079855;28;20035;-72
2023/12/26 05:57:18;;;;;;;12.60;1.75;;;;;;;7.72;100.00;100077.91;5066305;28;20032;-72
2023/12/26 05:59:43;;;;;;;9.48;1.30;;;;;;;7.72;100.00;100077.09;5062927;28;20036;-72
2023/12/26 06:02:09;;;;;;;7.07;1.20;;;;;;;7.70;100.00;100080.03;5061033;28;20032;-72
2023/12/26 06:04:36;;;;;;;12.52;1.63;;;;;;;7.70;100.00;100073.91;5055136;28;20039;-72
2023/12/26 06:07:02;;;;;;;11.07;1.63;;;;;;;7.70;100.00;100088.03;5066036;28;20112;-72
2023/12/26 06:09:28;;;;;;;10.63;1.60;;;;;;;7.72;100.00;100083.25;5043268;28;20087;-71
2023/12/26 06:11:54;;;;;;;6.65;1.48;;;;;;;7.71;100.00;100086.97;5080513;28;20455;-72
2023/12/26 06:14:20;;;;;;;8.35;1.52;;;;;;;7.64;100.00;100094.44;5065048;28;20027;-72
2023/12/26 06:16:46;;;;;;;9.35;1.48;;;;;;;7.65;100.00;100101.34;5050896;28;20124;-71
2023/12/26 06:19:12;;;;;;;6.22;1.42;;;;;;;7.64;100.00;100107.75;5047962;28;20032;-71
2023/12/26 06:21:38;;;;;;;;;;;;;;;7.61;100.00;100118.97;5065147;28;20036;-72
2023/12/26 06:24:06;;;;;;;11.73;1.65;;;;;;;7.57;100.00;100109.88;5056106;28;19915;-72
2023/12/26 06:26:31;;;;;;;11.13;1.33;;;;;;;7.56;100.00;100118.94;5061016;28;20032;-72
2023/12/26 06:28:57;;;;;;;11.57;1.80;;;;;;;7.55;100.00;100122.69;5061644;28;20048;-71
2023/12/26 06:31:22;;;;;;;11.57;1.48;;;;;;;7.56;100.00;100127.75;5067005;28;20036;-72
2023/12/26 06:33:48;;;;;;;8.55;1.42;;;;;;;7.56;100.00;100142.94;5059701;28;20497;-71
2023/12/26 06:36:14;;;;;;;8.65;1.60;;;;;;;7.53;100.00;100140.81;5037494;28;20050;-72
2023/12/26 06:38:40;;;;;;;9.35;1.98;;;;;;;7.53;100.00;100148.81;5045239;28;20028;-72
2023/12/26 06:41:06;;;;;;;7.53;1.60;;;;;;;7.56;100.00;100150.94;5047955;28;20046;-72
2023/12/26 06:43:32;;;;;;;13.40;1.90;;;;;;;7.56;100.00;100157.06;5042358;28;20039;-72
2023/12/26 06:45:58;;;;;;;10.23;2.13;;;;;;;7.55;100.00;100152.00;5059736;28;20085;-72
2023/12/26 06:48:25;;;;;;;7.22;1.33;;;;;;;7.54;100.00;100142.41;5068330;28;20039;-72
2023/12/26 06:50:51;;;;;;;8.27;1.42;;;;;;;7.51;100.00;100153.56;5043950;28;20408;-71
2023/12/26 06:53:17;;;;;;;9.05;1.40;;;;;;;7.49;100.00;100169.03;5063949;28;20493;-71
2023/12/26 06:55:43;;;;;;;10.45;1.75;;;;;;;7.45;100.00;100174.09;5081008;28;20554;-71
2023/12/26 06:58:09;;;;;;;9.95;1.88;;;;;;;7.45;100.00;100173.25;5059334;28;20024;-73
2023/12/26 07:00:35;;;;;;;10.90;1.88;;;;;;;7.45;100.00;100184.75;5066778;28;20776;-73
2023/12/26 07:03:01;;;;;;;15.25;2.08;;;;;;;7.48;100.00;100183.41;5076067;28;20820;-74
2023/12/26 07:05:26;;;;;;;10.05;1.95;;;;;;;7.47;100.00;100189.81;5049792;28;20032;-73
2023/12/26 07:07:52;;;;;;;10.38;1.92;;;;;;;7.49;100.00;100203.66;5064676;28;20112;-73
2023/12/26 07:10:18;;;;;;;10.50;1.73;;;;;;;7.48;100.00;100197.53;5077623;28;20043;-73
2023/12/26 07:12:44;;;;;;;13.60;2.35;;;;;;;7.50;100.00;100206.06;5031558;28;20455;-73
2023/12/26 07:15:09;;;;;;;10.75;2.67;;;;;;;7.49;100.00;100199.13;5081918;28;20024;-74
2023/12/26 07:17:35;;;;;;;14.35;1.63;;;;;;;7.49;100.00;100206.34;5075178;28;20032;-74
2023/12/26 07:20:01;;;;;;;12.18;2.17;;;;;;;7.50;100.00;100210.59;5058277;28;20575;-74
2023/12/26 07:22:26;;;;;;;9.45;1.67;;;;;;;7.52;100.00;100203.97;5060978;28;20476;-72
2023/12/26 07:24:52;;;;;;;11.30;1.90;;;;;;;7.53;100.00;100215.41;5053854;28;20052;-71
2023/12/26 07:27:18;;;;;;;10.57;1.60;;;;;;;7.52;100.00;100216.44;5061901;28;20081;-71
2023/12/26 07:29:43;;;;;;;9.20;1.77;;;;;;;7.52;100.00;100198.63;5073254;28;20044;-71
2023/12/26 07:32:09;;;;;;;7.65;1.60;;;;;;;7.55;100.00;100221.28;5045000;28;20028;-73
2023/12/26 07:34:34;;;;;;;7.05;1.52;;;;;;;7.53;100.00;100240.19;5075186;28;20509;-74
2023/12/26 07:37:00;;;;;;;10.15;2.13;;;;;;;7.54;100.00;100231.13;5077748;28;20468;-72
2023/12/26 07:39:26;;;;;;;10.38;1.50;;;;;;;7.54;100.00;100246.31;5045826;28;20036;-72
2023/12/26 07:41:51;;;;;;;9.32;1.52;;;;;;;7.55;100.00;100247.91;5065327;28;20055;-72
2023/12/26 07:44:18;;;;;;;12.25;1.77;;;;;;;7.56;100.00;100250.31;5047671;28;20492;-72
2023/12/26 07:46:44;;;;;;;10.30;1.67;;;;;;;7.53;100.00;100264.19;5063425;28;20047;-73
2023/12/26 07:49:09;;;;;;;8.35;2.25;;;;;;;7.53;100.00;100266.84;5078442;28;20028;-74
2023/12/26 07:51:35;;;;;;;11.27;2.00;;;;;;;7.54;100.00;100278.28;5045211;28;20725;-73
2023/12/26 07:54:00;;;;;;;9.27;2.08;;;;;;;7.54;100.00;100278.28;5059330;28;20043;-72
2023/12/26 07:56:26;;;;;;;15.18;1.50;;;;;;;7.52;100.00;100283.06;5078836;28;20036;-72
2023/12/26 07:58:55;;;;;;;9.88;1.42;;;;;;;7.50;100.00;100294.00;5058809;28;20032;-74
2023/12/26 08:01:24;;;;;;;12.38;3.03;;;;;;;7.46;100.00;100302.78;5060169;28;20423;-73
2023/12/26 08:03:50;;;;;;;12.48;2.03;;;;;;;7.44;100.00;100292.34;5078929;28;20028;-74
2023/12/26 08:06:15;;;;;;;11.90;2.38;;;;;;;7.43;100.00;100300.63;5038794;28;20062;-72
2023/12/26 08:08:41;;;;;;;13.07;2.03;;;;;;;7.40;100.00;100299.28;5059444;28;20029;-74
2023/12/26 08:11:07;;;;;;;12.38;2.38;;;;;;;7.41;100.00;100302.75;5042344;28;20064;-73
2023/12/26 08:13:33;;;;;;;9.20;1.67;;;;;;;7.39;100.00;100308.34;5063928;28;20033;-74
2023/12/26 08:15:59;;;;;;;10.65;1.98;;;;;;;7.39;100.00;100325.13;5081324;28;20674;-74
2023/12/26 08:18:24;;;;;;;9.90;1.67;;;;;;;7.38;100.00;100312.88;5054327;28;20028;-73
2023/12/26 08:20:50;;;;;;;9.98;1.83;;;;;;;7.41;100.00;100326.72;5053646;28;20448;-72
2023/12/26 08:23:16;;;;;;;12.18;2.08;;;;;;;7.41;100.00;100316.06;5047546;28;20394;-72
2023/12/26 08:25:42;;;;;;;13.25;2.13;;;;;;;7.41;100.00;100326.72;5080591;28;20524;-73
2023/12/26 08:28:08;;;;;;;15.75;2.40;;;;;;;7.39;100.00;100330.44;5065376;28;20805;-72
2023/12/26 08:30:34;;;;;;;9.48;1.90;;;;;;;7.38;100.00;100342.19;5059824;28;20547;-73
2023/12/26 08:32:59;;;;;;;17.15;2.05;;;;;;;7.39;100.00;100346.44;5061565;28;20547;-72
2023/12/26 08:35:27;;;;;;;11.93;2.08;;;;;;;7.39;100.00;100362.41;5078706;28;20028;-73
2023/12/26 08:37:53;;;;;;;17.35;2.20;;;;;;;7.41;100.00;100356.84;5063914;28;20032;-72
2023/12/26 08:40:20;;;;;;;13.00;2.70;;;;;;;7.41;100.00;100364.81;5053826;28;20046;-72
2023/12/26 08:42:46;;;;;;;9.30;1.52;;;;;;;7.41;100.00;100380.81;5075725;28;20039;-72
2023/12/26 08:45:15;;;;;;;14.10;1.88;;;;;;;7.41;100.00;100385.34;5057564;28;20036;-72
2023/12/26 08:47:40;;;;;;;9.13;1.52;;;;;;;7.39;100.00;100382.94;5046622;28;20062;-73
2023/12/26 08:50:09;;;;;;;9.82;1.83;;;;;;;7.38;100.00;100376.81;5066013;28;20512;-72
2023/12/26 08:52:35;;;;;;;13.18;2.88;;;;;;;7.39;100.00;100373.06;5050903;28;20393;-73
2023/12/26 08:55:00;;;;;;;9.25;1.60;;;;;;;7.36;100.00;100378.91;5047823;28;20405;-73
2023/12/26 08:57:28;;;;;;;11.10;2.30;;;;;;;7.36;100.00;100392.22;5071563;28;20412;-73
2023/12/26 08:59:54;;;;;;;12.65;1.83;;;;;;;7.39;100.00;100398.91;5041579;28;20056;-72
2023/12/26 09:02:20;;;;;;;13.70;1.90;;;;;;;7.36;100.00;100400.22;5049663;28;20619;-72
2023/12/26 09:04:46;;;;;;;14.57;2.15;;;;;;;7.36;100.00;100405.53;5083586;28;20028;-73
2023/12/26 09:07:13;;;;;;;8.68;1.92;;;;;;;7.34;100.00;100397.00;5047474;28;20085;-73
2023/12/26 09:09:39;;;;;;;6.68;1.80;;;;;;;7.32;100.00;100403.66;5057960;28;20390;-73
2023/12/26 09:12:05;;;;;;;16.52;2.33;;;;;;;7.27;100.00;100414.28;5056410;28;20046;-73
2023/12/26 09:14:31;;;;;;;15.43;2.22;;;;;;;7.21;100.00;100425.94;5066127;28;20028;-73
2023/12/26 09:16:57;;;;;;;13.57;1.90;;;;;;;7.20;100.00;100422.47;5069249;28;20085;-74
2023/12/26 09:19:23;;;;;;;9.30;1.67;;;;;;;7.15;100.00;100419.78;5036371;28;20036;-72
2023/12/26 09:21:49;;;;;;;12.23;2.10;;;;;;;7.15;100.00;100435.75;5082078;28;20093;-72
2023/12/26 09:24:15;;;;;;;11.90;2.05;;;;;;;7.19;100.00;100442.19;5051734;28;20501;-73
2023/12/26 09:26:40;;;;;;;16.67;2.85;;;;;;;7.23;100.00;100437.94;5079365;28;20036;-73
2023/12/26 09:29:06;;;;;;;8.25;1.83;;;;;;;7.24;100.00;100442.22;5073908;28;20118;-74
2023/12/26 09:31:31;;;;;;;10.77;1.77;;;;;;;7.27;100.00;100455.03;5063120;28;20032;-73
2023/12/26 09:33:57;;;;;;;12.68;2.30;;;;;;;7.26;100.00;100445.44;5041654;28;20532;-73
2023/12/26 09:36:23;;;;;;;11.32;2.00;;;;;;;7.29;100.00;100442.25;5057381;28;20032;-74
2023/12/26 09:38:48;;;;;;;13.18;2.67;;;;;;;7.31;100.00;100453.44;5083170;28;20028;-73
2023/12/26 09:41:21;;;;;;;14.13;2.40;;;;;;;7.30;100.00;100453.72;5081720;28;20401;-73
2023/12/26 09:43:47;;;;;;;12.35;1.80;;;;;;;7.35;100.00;100456.41;5051833;28;20050;-72
2023/12/26 09:46:14;;;;;;;10.60;1.90;;;;;;;7.39;100.00;100469.00;5066192;28;20040;-72
2023/12/26 09:48:40;;;;;;;7.70;1.40;;;;;;;7.45;100.00;100466.34;5040433;28;20488;-72
2023/12/26 09:51:08;;;;;;;10.27;2.13;;;;;;;7.47;100.00;100469.56;5062924;28;20081;-73
2023/12/26 09:53:38;;;;;;;11.50;2.13;;;;;;;7.50;100.00;100464.53;5065192;28;20027;-73
2023/12/26 09:56:06;;;;;;;9.60;1.83;;;;;;;7.52;100.00;100478.41;5057448;28;20028;-73
2023/12/26 09:58:32;;;;;;;11.57;1.55;;;;;;;7.54;100.00;100472.81;5058732;28;20490;-73
2023/12/26 10:00:59;;;;;;;9.80;1.77;;;;;;;7.58;100.00;100473.91;5068162;28;20639;-72
2023/12/26 10:03:25;;;;;;;9.80;2.05;;;;;;;7.56;100.00;100484.81;5078568;28;20170;-73
2023/12/26 10:05:57;;;;;;;13.23;1.77;;;;;;;7.59;100.00;100495.00;5072465;28;20036;-72
2023/12/26 10:08:24;;;;;;;7.65;1.85;;;;;;;7.61;100.00;100481.41;5027848;28;20148;-73
2023/12/26 10:10:49;;;;;;;8.75;1.20;;;;;;;7.62;100.00;100483.81;5083264;28;20197;-73
2023/12/26 10:13:15;;;;;;;8.02;1.42;;;;;;;7.65;100.00;100488.63;5064566;28;20386;-72
2023/12/26 10:15:44;;;;;;;8.70;1.92;;;;;;;7.68;100.00;100489.97;5043563;28;20064;-74
2023/12/26 10:18:12;;;;;;;7.40;1.65;;;;;;;7.72;100.00;100488.38;5076097;28;20584;-73
2023/12/26 10:20:38;;;;;;;11.65;1.77;;;;;;;7.76;100.00;100492.16;5050136;28;20296;-73
2023/12/26 10:23:04;;;;;;;12.05;1.95;;;;;;;7.76;100.00;100486.81;5074768;28;20511;-74
2023/12/26 10:25:30;;;;;;;12.80;2.17;;;;;;;7.81;100.00;100494.06;5043195;28;20513;-73
2023/12/26 10:27:55;;;;;;;7.20;1.67;;;;;;;7.86;100.00;100494.09;5050265;28;20767;-73
2023/12/26 10:30:24;;;;;;;10.10;1.80;;;;;;;7.86;100.00;100502.09;5057699;28;20036;-73
2023/12/26 10:33:00;;;;;;;7.53;1.25;;;;;;;7.83;100.00;100495.41;5060362;28;20881;-73
2023/12/26 10:35:26;;;;;;;8.20;2.33;;;;;;;7.78;100.00;100500.69;5082202;28;20032;-73
2023/12/26 10:37:51;;;;;;;11.05;1.80;;;;;;;7.76;100.00;100502.81;5044594;28;20032;-73
2023/12/26 10:40:18;;;;;;;10.93;1.85;;;;;;;7.75;100.00;100501.22;5081782;28;20610;-74
2023/12/26 10:42:48;;;;;;;12.60;1.90;;;;;;;7.79;100.00;100489.00;5082116;28;20051;-73
2023/12/26 10:45:14;;;;;;;11.73;1.60;;;;;;;7.86;100.00;100497.56;5047487;28;20032;-73
2023/12/26 10:47:43;;;;;;;14.50;2.05;;;;;;;7.90;100.00;100503.97;5045827;28;20028;-74
2023/12/26 10:50:12;;;;;;;10.48;1.63;;;;;;;7.92;100.00;100499.22;5045872;28;20043;-73
2023/12/26 10:52:40;;;;;;;8.70;1.83;;;;;;;7.99;100.00;100514.16;5044122;28;20036;-72
2023/12/26 10:55:07;;;;;;;7.70;1.45;;;;;;;8.06;100.00;100514.72;5046818;28;20783;-73
2023/12/26 10:57:34;;;;;;;10.35;1.35;;;;;;;8.07;100.00;100513.69;5043524;28;20040;-73
2023/12/26 10:59:59;;;;;;;9.10;1.50;;;;;;;8.10;100.00;100527.28;5061964;28;20063;-73
2023/12/26 11:02:26;;;;;;;13.57;2.88;;;;;;;8.00;100.00;100516.59;5075653;28;20106;-73
2023/12/26 11:04:52;;;;;;;8.20;1.50;;;;;;;7.93;100.00;100516.81;5075707;28;20505;-73
2023/12/26 11:07:20;;;;;;;8.93;2.17;;;;;;;7.92;100.00;100525.88;5076756;28;20047;-72
2023/12/26 11:09:47;;;;;;;13.32;1.83;;;;;;;7.88;100.00;100537.31;5066613;28;20829;-73
2023/12/26 11:12:12;;;;;;;9.38;1.73;;;;;;;7.90;100.00;100533.31;5081323;28;20839;-75
2023/12/26 11:14:38;;;;;;;11.65;1.70;;;;;;;7.97;100.00;100521.63;5064688;28;20032;-74
2023/12/26 11:17:04;;;;;;;;;;;;;;;8.04;100.00;100533.66;5049582;28;20093;-75
2023/12/26 11:19:31;;;;;;;11.32;2.17;;;;;;;8.12;100.00;100527.03;5056820;28;19913;-73
2023/12/26 11:21:56;;;;;;;16.67;2.10;;;;;;;8.04;100.00;100538.19;5055627;28;20105;-74
2023/12/26 11:24:22;;;;;;;8.27;1.80;;;;;;;7.97;100.00;100542.94;5058965;28;20039;-75